sensor_id;sensor_type;location;lat;lon;timestamp;temperature;humidity
22696;DHT22;11515;54.326;10.184;2022-10-31T00:00:49;12.70;99.90
22696;DHT22;11515;54.326;10.184;2022-10-31T00:03:15;12.70;99.90
22696;DHT22;11515;54.326;10.184;2022-10-31T00:05:46;12.70;99.90
22696;DHT22;11515;54.326;10.184;2022-10-31T00:08:12;12.70;99.90
22696;DHT22;11515;54.326;10.184;2022-10-31T00:10:38;12.70;99.90
22696;DHT22;11515;54.326;10.184;2022-10-31T00:13:04;12.80;99.90
22696;DHT22;11515;54.326;10.184;2022-10-31T00:15:30;12.70;99.90
22696;DHT22;11515;54.326;10.184;2022-10-31T00:17:55;12.70;99.90
22696;DHT22;11515;54.326;10.184;2022-10-31T00:20:21;12.70;99.90
22696;DHT22;11515;54.326;10.184;2022-10-31T00:22:46;12.70;99.90
22696;DHT22;11515;54.326;10.184;2022-10-31T00:25:12;12.70;99.90
22696;DHT22;11515;54.326;10.184;2022-10-31T00:27:38;12.70;99.90
22696;DHT22;11515;54.326;10.184;2022-10-31T00:30:03;12.80;99.90
22696;DHT22;11515;54.326;10.184;2022-10-31T00:32:29;12.80;99.90
22696;DHT22;11515;54.326;10.184;2022-10-31T00:34:55;12.90;99.90
22696;DHT22;11515;54.326;10.184;2022-10-31T00:37:21;12.90;99.90
22696;DHT22;11515;54.326;10.184;2022-10-31T00:39:46;12.90;99.90
22696;DHT22;11515;54.326;10.184;2022-10-31T00:42:14;12.90;99.90
22696;DHT22;11515;54.326;10.184;2022-10-31T00:44:40;12.90;99.90
22696;DHT22;11515;54.326;10.184;2022-10-31T00:47:05;12.90;99.90
22696;DHT22;11515;54.326;10.184;2022-10-31T00:49:31;12.80;99.90
22696;DHT22;11515;54.326;10.184;2022-10-31T00:51:56;12.80;99.90
22696;DHT22;11515;54.326;10.184;2022-10-31T00:54:22;12.80;99.90
22696;DHT22;11515;54.326;10.184;2022-10-31T00:56:47;12.80;99.90
22696;DHT22;11515;54.326;10.184;2022-10-31T00:59:13;12.80;99.90
22696;DHT22;11515;54.326;10.184;2022-10-31T01:01:38;12.80;99.90
22696;DHT22;11515;54.326;10.184;2022-10-31T01:04:04;12.70;99.90
22696;DHT22;11515;54.326;10.184;2022-10-31T01:06:30;12.80;99.90
22696;DHT22;11515;54.326;10.184;2022-10-31T01:08:56;12.70;99.90
22696;DHT22;11515;54.326;10.184;2022-10-31T01:11:22;12.80;99.90
22696;DHT22;11515;54.326;10.184;2022-10-31T01:13:51;12.70;99.90
22696;DHT22;11515;54.326;10.184;2022-10-31T01:16:19;12.70;99.90
22696;DHT22;11515;54.326;10.184;2022-10-31T01:18:45;12.70;99.90
22696;DHT22;11515;54.326;10.184;2022-10-31T01:21:25;12.70;99.90
22696;DHT22;11515;54.326;10.184;2022-10-31T01:23:53;12.70;99.90
22696;DHT22;11515;54.326;10.184;2022-10-31T01:26:28;12.70;99.90
22696;DHT22;11515;54.326;10.184;2022-10-31T01:29:00;12.60;99.90
22696;DHT22;11515;54.326;10.184;2022-10-31T01:31:28;12.60;99.90
22696;DHT22;11515;54.326;10.184;2022-10-31T01:33:54;12.60;99.90
22696;DHT22;11515;54.326;10.184;2022-10-31T01:36:26;12.60;99.90
22696;DHT22;11515;54.326;10.184;2022-10-31T01:38:53;12.60;99.90
22696;DHT22;11515;54.326;10.184;2022-10-31T01:41:23;12.50;99.90
22696;DHT22;11515;54.326;10.184;2022-10-31T01:43:54;12.50;99.90
22696;DHT22;11515;54.326;10.184;2022-10-31T01:46:38;12.50;99.90
22696;DHT22;11515;54.326;10.184;2022-10-31T01:49:18;12.40;99.90
22696;DHT22;11515;54.326;10.184;2022-10-31T01:51:49;12.40;99.90
22696;DHT22;11515;54.326;10.184;2022-10-31T01:54:18;12.40;99.90
22696;DHT22;11515;54.326;10.184;2022-10-31T01:56:50;12.40;99.90
22696;DHT22;11515;54.326;10.184;2022-10-31T01:59:20;12.40;99.90
22696;DHT22;11515;54.326;10.184;2022-10-31T02:01:47;12.50;99.90
22696;DHT22;11515;54.326;10.184;2022-10-31T02:04:14;12.50;99.90
22696;DHT22;11515;54.326;10.184;2022-10-31T02:06:53;12.60;99.90
22696;DHT22;11515;54.326;10.184;2022-10-31T02:09:20;12.70;99.90
22696;DHT22;11515;54.326;10.184;2022-10-31T02:11:54;12.70;99.90
22696;DHT22;11515;54.326;10.184;2022-10-31T02:14:26;12.80;99.90
22696;DHT22;11515;54.326;10.184;2022-10-31T02:16:57;12.80;99.90
22696;DHT22;11515;54.326;10.184;2022-10-31T02:19:43;12.80;99.90
22696;DHT22;11515;54.326;10.184;2022-10-31T02:24:46;12.90;99.90
22696;DHT22;11515;54.326;10.184;2022-10-31T02:30:11;12.90;99.90
22696;DHT22;11515;54.326;10.184;2022-10-31T02:41:10;12.80;99.90
22696;DHT22;11515;54.326;10.184;2022-10-31T02:43:58;12.70;99.90
22696;DHT22;11515;54.326;10.184;2022-10-31T02:46:39;12.70;99.90
22696;DHT22;11515;54.326;10.184;2022-10-31T02:49:23;12.70;99.90
22696;DHT22;11515;54.326;10.184;2022-10-31T02:51:50;12.70;99.90
22696;DHT22;11515;54.326;10.184;2022-10-31T02:54:27;12.70;99.90
22696;DHT22;11515;54.326;10.184;2022-10-31T02:57:05;12.70;99.90
22696;DHT22;11515;54.326;10.184;2022-10-31T02:59:32;12.70;99.90
22696;DHT22;11515;54.326;10.184;2022-10-31T03:02:43;12.70;99.90
22696;DHT22;11515;54.326;10.184;2022-10-31T03:07:51;12.80;99.90
22696;DHT22;11515;54.326;10.184;2022-10-31T03:10:31;12.80;99.90
22696;DHT22;11515;54.326;10.184;2022-10-31T03:15:54;12.70;99.90
22696;DHT22;11515;54.326;10.184;2022-10-31T03:18:28;12.70;99.90
22696;DHT22;11515;54.326;10.184;2022-10-31T03:21:13;12.70;99.90
22696;DHT22;11515;54.326;10.184;2022-10-31T03:23:40;12.70;99.90
22696;DHT22;11515;54.326;10.184;2022-10-31T03:26:09;12.70;99.90
22696;DHT22;11515;54.326;10.184;2022-10-31T03:28:43;12.70;99.90
22696;DHT22;11515;54.326;10.184;2022-10-31T03:31:14;12.70;99.90
22696;DHT22;11515;54.326;10.184;2022-10-31T03:33:42;12.70;99.90
22696;DHT22;11515;54.326;10.184;2022-10-31T03:36:10;12.60;99.90
22696;DHT22;11515;54.326;10.184;2022-10-31T03:38:38;12.60;99.90
22696;DHT22;11515;54.326;10.184;2022-10-31T03:41:05;12.60;99.90
22696;DHT22;11515;54.326;10.184;2022-10-31T03:43:42;12.60;99.90
22696;DHT22;11515;54.326;10.184;2022-10-31T03:46:08;12.60;99.90
22696;DHT22;11515;54.326;10.184;2022-10-31T03:48:34;12.60;99.90
22696;DHT22;11515;54.326;10.184;2022-10-31T03:53:41;12.60;99.90
22696;DHT22;11515;54.326;10.184;2022-10-31T03:56:18;12.50;99.90
22696;DHT22;11515;54.326;10.184;2022-10-31T03:59:06;12.50;99.90
22696;DHT22;11515;54.326;10.184;2022-10-31T04:01:37;12.50;99.90
22696;DHT22;11515;54.326;10.184;2022-10-31T04:04:05;12.50;99.90
22696;DHT22;11515;54.326;10.184;2022-10-31T04:06:34;12.50;99.90
22696;DHT22;11515;54.326;10.184;2022-10-31T04:09:03;12.60;99.90
22696;DHT22;11515;54.326;10.184;2022-10-31T04:11:32;12.60;99.90
22696;DHT22;11515;54.326;10.184;2022-10-31T04:14:01;12.50;99.90
22696;DHT22;11515;54.326;10.184;2022-10-31T04:16:27;12.60;99.90
22696;DHT22;11515;54.326;10.184;2022-10-31T04:18:53;12.60;99.90
22696;DHT22;11515;54.326;10.184;2022-10-31T04:21:19;12.60;99.90
22696;DHT22;11515;54.326;10.184;2022-10-31T04:23:45;12.60;99.90
22696;DHT22;11515;54.326;10.184;2022-10-31T04:26:12;12.60;99.90
22696;DHT22;11515;54.326;10.184;2022-10-31T04:28:37;12.60;99.90
22696;DHT22;11515;54.326;10.184;2022-10-31T04:31:04;12.60;99.90
22696;DHT22;11515;54.326;10.184;2022-10-31T04:33:30;12.70;99.90
22696;DHT22;11515;54.326;10.184;2022-10-31T04:35:55;12.70;99.90
22696;DHT22;11515;54.326;10.184;2022-10-31T04:38:21;12.70;99.90
22696;DHT22;11515;54.326;10.184;2022-10-31T04:40:47;12.70;99.90
22696;DHT22;11515;54.326;10.184;2022-10-31T04:43:12;12.70;99.90
22696;DHT22;11515;54.326;10.184;2022-10-31T04:45:38;12.70;99.90
22696;DHT22;11515;54.326;10.184;2022-10-31T04:48:04;12.70;99.90
22696;DHT22;11515;54.326;10.184;2022-10-31T04:50:29;12.70;99.90
22696;DHT22;11515;54.326;10.184;2022-10-31T04:52:55;12.80;99.90
22696;DHT22;11515;54.326;10.184;2022-10-31T04:55:20;12.80;99.90
22696;DHT22;11515;54.326;10.184;2022-10-31T04:57:48;12.80;99.90
22696;DHT22;11515;54.326;10.184;2022-10-31T05:00:16;12.70;99.90
22696;DHT22;11515;54.326;10.184;2022-10-31T05:02:44;12.70;99.90
22696;DHT22;11515;54.326;10.184;2022-10-31T05:05:10;12.70;99.90
22696;DHT22;11515;54.326;10.184;2022-10-31T05:07:40;12.70;99.90
22696;DHT22;11515;54.326;10.184;2022-10-31T05:10:07;12.70;99.90
22696;DHT22;11515;54.326;10.184;2022-10-31T05:12:35;12.60;99.90
22696;DHT22;11515;54.326;10.184;2022-10-31T05:15:01;12.60;99.90
22696;DHT22;11515;54.326;10.184;2022-10-31T05:17:26;12.60;99.90
22696;DHT22;11515;54.326;10.184;2022-10-31T05:19:52;12.60;99.90
22696;DHT22;11515;54.326;10.184;2022-10-31T05:22:17;12.60;99.90
22696;DHT22;11515;54.326;10.184;2022-10-31T05:24:43;12.50;99.90
22696;DHT22;11515;54.326;10.184;2022-10-31T05:27:08;12.50;99.90
22696;DHT22;11515;54.326;10.184;2022-10-31T05:29:34;12.50;99.90
22696;DHT22;11515;54.326;10.184;2022-10-31T05:31:59;12.50;99.90
22696;DHT22;11515;54.326;10.184;2022-10-31T05:34:25;12.50;99.90
22696;DHT22;11515;54.326;10.184;2022-10-31T05:36:50;12.50;99.90
22696;DHT22;11515;54.326;10.184;2022-10-31T05:39:16;12.50;99.90
22696;DHT22;11515;54.326;10.184;2022-10-31T05:41:42;12.50;99.90
22696;DHT22;11515;54.326;10.184;2022-10-31T05:44:08;12.50;99.90
22696;DHT22;11515;54.326;10.184;2022-10-31T05:46:33;12.60;99.90
22696;DHT22;11515;54.326;10.184;2022-10-31T05:48:59;12.50;99.90
22696;DHT22;11515;54.326;10.184;2022-10-31T05:51:24;12.60;99.90
22696;DHT22;11515;54.326;10.184;2022-10-31T05:53:50;12.60;99.90
22696;DHT22;11515;54.326;10.184;2022-10-31T05:56:16;12.60;99.90
22696;DHT22;11515;54.326;10.184;2022-10-31T05:58:41;12.60;99.90
22696;DHT22;11515;54.326;10.184;2022-10-31T06:01:07;12.60;99.90
22696;DHT22;11515;54.326;10.184;2022-10-31T06:03:36;12.60;99.90
22696;DHT22;11515;54.326;10.184;2022-10-31T06:06:01;12.60;99.90
22696;DHT22;11515;54.326;10.184;2022-10-31T06:08:27;12.60;99.90
22696;DHT22;11515;54.326;10.184;2022-10-31T06:10:53;12.60;99.90
22696;DHT22;11515;54.326;10.184;2022-10-31T06:13:19;12.50;99.90
22696;DHT22;11515;54.326;10.184;2022-10-31T06:15:44;12.50;99.90
22696;DHT22;11515;54.326;10.184;2022-10-31T06:18:10;12.50;99.90
22696;DHT22;11515;54.326;10.184;2022-10-31T06:20:35;12.50;99.90
22696;DHT22;11515;54.326;10.184;2022-10-31T06:23:02;12.40;99.90
22696;DHT22;11515;54.326;10.184;2022-10-31T06:25:28;12.40;99.90
22696;DHT22;11515;54.326;10.184;2022-10-31T06:27:54;12.40;99.90
22696;DHT22;11515;54.326;10.184;2022-10-31T06:30:20;12.40;99.90
22696;DHT22;11515;54.326;10.184;2022-10-31T06:32:45;12.40;99.90
22696;DHT22;11515;54.326;10.184;2022-10-31T06:35:11;12.40;99.90
22696;DHT22;11515;54.326;10.184;2022-10-31T06:37:37;12.40;99.90
22696;DHT22;11515;54.326;10.184;2022-10-31T06:40:03;12.40;99.90
22696;DHT22;11515;54.326;10.184;2022-10-31T06:42:28;12.40;99.90
22696;DHT22;11515;54.326;10.184;2022-10-31T06:44:54;12.40;99.90
22696;DHT22;11515;54.326;10.184;2022-10-31T06:47:20;12.40;99.90
22696;DHT22;11515;54.326;10.184;2022-10-31T06:49:45;12.40;99.90
22696;DHT22;11515;54.326;10.184;2022-10-31T06:52:11;12.40;99.90
22696;DHT22;11515;54.326;10.184;2022-10-31T06:54:36;12.40;99.90
22696;DHT22;11515;54.326;10.184;2022-10-31T06:57:02;12.50;99.90
22696;DHT22;11515;54.326;10.184;2022-10-31T06:59:28;12.40;99.90
22696;DHT22;11515;54.326;10.184;2022-10-31T07:01:53;12.50;99.90
22696;DHT22;11515;54.326;10.184;2022-10-31T07:04:19;12.50;99.90
22696;DHT22;11515;54.326;10.184;2022-10-31T07:06:45;12.50;99.90
22696;DHT22;11515;54.326;10.184;2022-10-31T07:09:10;12.50;99.90
22696;DHT22;11515;54.326;10.184;2022-10-31T07:11:36;12.50;99.90
22696;DHT22;11515;54.326;10.184;2022-10-31T07:14:02;12.50;99.90
22696;DHT22;11515;54.326;10.184;2022-10-31T07:16:28;12.50;99.90
22696;DHT22;11515;54.326;10.184;2022-10-31T07:18:53;12.50;99.90
22696;DHT22;11515;54.326;10.184;2022-10-31T07:21:19;12.50;99.90
22696;DHT22;11515;54.326;10.184;2022-10-31T07:23:48;12.40;99.90
22696;DHT22;11515;54.326;10.184;2022-10-31T07:26:14;12.40;99.90
22696;DHT22;11515;54.326;10.184;2022-10-31T07:28:39;12.40;99.90
22696;DHT22;11515;54.326;10.184;2022-10-31T07:31:05;12.40;99.90
22696;DHT22;11515;54.326;10.184;2022-10-31T07:33:30;12.40;99.90
22696;DHT22;11515;54.326;10.184;2022-10-31T07:35:56;12.40;99.90
22696;DHT22;11515;54.326;10.184;2022-10-31T07:38:21;12.50;99.90
22696;DHT22;11515;54.326;10.184;2022-10-31T07:40:50;12.60;99.90
22696;DHT22;11515;54.326;10.184;2022-10-31T07:43:18;12.60;99.90
22696;DHT22;11515;54.326;10.184;2022-10-31T07:45:43;12.70;99.90
22696;DHT22;11515;54.326;10.184;2022-10-31T07:48:09;12.70;99.90
22696;DHT22;11515;54.326;10.184;2022-10-31T07:50:35;12.70;99.90
22696;DHT22;11515;54.326;10.184;2022-10-31T07:53:07;12.70;99.90
22696;DHT22;11515;54.326;10.184;2022-10-31T07:55:33;12.70;99.90
22696;DHT22;11515;54.326;10.184;2022-10-31T07:58:01;12.70;99.90
22696;DHT22;11515;54.326;10.184;2022-10-31T08:00:27;12.70;99.90
22696;DHT22;11515;54.326;10.184;2022-10-31T08:03:21;12.70;99.90
22696;DHT22;11515;54.326;10.184;2022-10-31T08:05:47;12.70;99.90
22696;DHT22;11515;54.326;10.184;2022-10-31T08:08:13;12.70;99.90
22696;DHT22;11515;54.326;10.184;2022-10-31T08:10:39;12.60;99.90
22696;DHT22;11515;54.326;10.184;2022-10-31T08:13:11;12.40;99.90
22696;DHT22;11515;54.326;10.184;2022-10-31T08:15:37;12.30;99.90
22696;DHT22;11515;54.326;10.184;2022-10-31T08:18:06;12.30;99.90
22696;DHT22;11515;54.326;10.184;2022-10-31T08:20:32;12.40;99.90
22696;DHT22;11515;54.326;10.184;2022-10-31T08:23:02;12.40;99.90
22696;DHT22;11515;54.326;10.184;2022-10-31T08:25:29;12.30;99.90
22696;DHT22;11515;54.326;10.184;2022-10-31T08:27:55;12.40;99.90
22696;DHT22;11515;54.326;10.184;2022-10-31T08:30:25;12.30;99.90
22696;DHT22;11515;54.326;10.184;2022-10-31T08:33:03;12.30;99.90
22696;DHT22;11515;54.326;10.184;2022-10-31T08:35:29;12.30;99.90
22696;DHT22;11515;54.326;10.184;2022-10-31T08:37:56;12.20;99.90
22696;DHT22;11515;54.326;10.184;2022-10-31T08:40:23;12.00;99.90
22696;DHT22;11515;54.326;10.184;2022-10-31T08:42:58;12.00;99.90
22696;DHT22;11515;54.326;10.184;2022-10-31T08:45:25;12.10;99.90
22696;DHT22;11515;54.326;10.184;2022-10-31T08:47:51;12.20;99.90
22696;DHT22;11515;54.326;10.184;2022-10-31T08:50:19;12.30;99.90
22696;DHT22;11515;54.326;10.184;2022-10-31T08:52:44;12.20;99.90
22696;DHT22;11515;54.326;10.184;2022-10-31T08:55:10;12.00;99.90
22696;DHT22;11515;54.326;10.184;2022-10-31T08:57:36;11.90;99.90
22696;DHT22;11515;54.326;10.184;2022-10-31T09:00:01;11.90;99.90
22696;DHT22;11515;54.326;10.184;2022-10-31T09:02:27;11.80;99.90
22696;DHT22;11515;54.326;10.184;2022-10-31T09:04:53;11.80;99.90
22696;DHT22;11515;54.326;10.184;2022-10-31T09:07:18;11.80;99.90
22696;DHT22;11515;54.326;10.184;2022-10-31T09:09:44;12.00;99.90
22696;DHT22;11515;54.326;10.184;2022-10-31T09:12:09;11.90;99.90
22696;DHT22;11515;54.326;10.184;2022-10-31T09:14:35;11.90;99.90
22696;DHT22;11515;54.326;10.184;2022-10-31T09:17:01;11.80;99.90
22696;DHT22;11515;54.326;10.184;2022-10-31T09:19:26;11.80;99.90
22696;DHT22;11515;54.326;10.184;2022-10-31T09:21:53;11.80;99.90
22696;DHT22;11515;54.326;10.184;2022-10-31T09:24:19;11.80;99.90
22696;DHT22;11515;54.326;10.184;2022-10-31T09:26:44;11.80;99.90
22696;DHT22;11515;54.326;10.184;2022-10-31T09:29:10;11.80;99.90
22696;DHT22;11515;54.326;10.184;2022-10-31T09:31:36;11.90;99.90
22696;DHT22;11515;54.326;10.184;2022-10-31T09:34:02;11.90;99.90
22696;DHT22;11515;54.326;10.184;2022-10-31T09:36:27;11.80;99.90
22696;DHT22;11515;54.326;10.184;2022-10-31T09:38:53;11.80;99.90
22696;DHT22;11515;54.326;10.184;2022-10-31T09:43:59;12.00;99.90
22696;DHT22;11515;54.326;10.184;2022-10-31T09:52:03;12.20;99.90
22696;DHT22;11515;54.326;10.184;2022-10-31T09:54:45;12.20;99.90
22696;DHT22;11515;54.326;10.184;2022-10-31T09:57:14;12.20;99.90
22696;DHT22;11515;54.326;10.184;2022-10-31T09:59:41;12.20;99.90
22696;DHT22;11515;54.326;10.184;2022-10-31T10:05:08;12.10;99.90
22696;DHT22;11515;54.326;10.184;2022-10-31T10:07:38;12.10;99.90
22696;DHT22;11515;54.326;10.184;2022-10-31T10:10:29;12.20;99.90
22696;DHT22;11515;54.326;10.184;2022-10-31T10:15:58;12.40;99.90
22696;DHT22;11515;54.326;10.184;2022-10-31T10:21:20;12.50;99.90
22696;DHT22;11515;54.326;10.184;2022-10-31T10:26:21;12.60;99.90
22696;DHT22;11515;54.326;10.184;2022-10-31T10:31:49;12.70;99.90
22696;DHT22;11515;54.326;10.184;2022-10-31T10:34:18;12.80;99.90
22696;DHT22;11515;54.326;10.184;2022-10-31T10:36:56;12.80;99.90
22696;DHT22;11515;54.326;10.184;2022-10-31T10:39:28;12.90;99.90
22696;DHT22;11515;54.326;10.184;2022-10-31T10:41:55;12.90;99.90
22696;DHT22;11515;54.326;10.184;2022-10-31T10:44:46;13.00;99.90
22696;DHT22;11515;54.326;10.184;2022-10-31T10:47:38;13.10;99.90
22696;DHT22;11515;54.326;10.184;2022-10-31T10:50:18;13.20;99.90
22696;DHT22;11515;54.326;10.184;2022-10-31T10:55:53;13.50;99.90
22696;DHT22;11515;54.326;10.184;2022-10-31T10:58:22;13.60;99.90
22696;DHT22;11515;54.326;10.184;2022-10-31T11:00:48;13.60;99.90
22696;DHT22;11515;54.326;10.184;2022-10-31T11:03:16;13.70;99.90
22696;DHT22;11515;54.326;10.184;2022-10-31T11:05:53;13.70;99.90
22696;DHT22;11515;54.326;10.184;2022-10-31T11:08:31;13.70;99.90
22696;DHT22;11515;54.326;10.184;2022-10-31T11:13:55;13.80;99.90
22696;DHT22;11515;54.326;10.184;2022-10-31T11:18:53;14.00;99.90
22696;DHT22;11515;54.326;10.184;2022-10-31T11:21:29;14.10;99.90
22696;DHT22;11515;54.326;10.184;2022-10-31T11:26:40;14.10;99.90
22696;DHT22;11515;54.326;10.184;2022-10-31T11:29:15;14.20;99.90
22696;DHT22;11515;54.326;10.184;2022-10-31T11:31:42;14.30;99.90
22696;DHT22;11515;54.326;10.184;2022-10-31T11:34:27;14.50;99.90
22696;DHT22;11515;54.326;10.184;2022-10-31T11:36:54;14.50;99.90
22696;DHT22;11515;54.326;10.184;2022-10-31T11:39:24;14.40;99.90
22696;DHT22;11515;54.326;10.184;2022-10-31T11:41:52;14.40;99.90
22696;DHT22;11515;54.326;10.184;2022-10-31T11:44:25;14.40;99.90
22696;DHT22;11515;54.326;10.184;2022-10-31T11:46:57;14.50;99.90
22696;DHT22;11515;54.326;10.184;2022-10-31T11:49:32;14.40;99.90
22696;DHT22;11515;54.326;10.184;2022-10-31T11:52:04;14.50;99.90
22696;DHT22;11515;54.326;10.184;2022-10-31T11:54:34;14.80;99.90
22696;DHT22;11515;54.326;10.184;2022-10-31T11:57:02;15.90;99.90
22696;DHT22;11515;54.326;10.184;2022-10-31T11:59:30;16.30;99.90
22696;DHT22;11515;54.326;10.184;2022-10-31T12:01:58;16.10;99.90
22696;DHT22;11515;54.326;10.184;2022-10-31T12:04:43;15.80;99.90
22696;DHT22;11515;54.326;10.184;2022-10-31T12:07:09;15.50;99.90
22696;DHT22;11515;54.326;10.184;2022-10-31T12:09:36;15.40;99.90
22696;DHT22;11515;54.326;10.184;2022-10-31T12:17:18;15.40;99.90
22696;DHT22;11515;54.326;10.184;2022-10-31T12:25:28;15.30;99.90
22696;DHT22;11515;54.326;10.184;2022-10-31T12:31:10;15.30;99.90
22696;DHT22;11515;54.326;10.184;2022-10-31T12:33:47;15.10;99.90
22696;DHT22;11515;54.326;10.184;2022-10-31T12:36:26;15.10;99.90
22696;DHT22;11515;54.326;10.184;2022-10-31T12:41:51;15.20;99.90
22696;DHT22;11515;54.326;10.184;2022-10-31T12:55:25;15.30;99.90
22696;DHT22;11515;54.326;10.184;2022-10-31T12:58:00;15.20;99.90
22696;DHT22;11515;54.326;10.184;2022-10-31T13:00:27;15.10;99.90
22696;DHT22;11515;54.326;10.184;2022-10-31T13:03:30;15.10;99.90
22696;DHT22;11515;54.326;10.184;2022-10-31T13:06:03;15.10;99.90
22696;DHT22;11515;54.326;10.184;2022-10-31T13:08:57;15.00;99.90
22696;DHT22;11515;54.326;10.184;2022-10-31T13:11:40;15.00;99.90
22696;DHT22;11515;54.326;10.184;2022-10-31T13:14:32;15.10;99.90
22696;DHT22;11515;54.326;10.184;2022-10-31T13:17:00;15.10;99.90
22696;DHT22;11515;54.326;10.184;2022-10-31T13:19:40;15.20;99.90
22696;DHT22;11515;54.326;10.184;2022-10-31T13:22:24;15.10;99.90
22696;DHT22;11515;54.326;10.184;2022-10-31T13:25:09;14.90;99.90
22696;DHT22;11515;54.326;10.184;2022-10-31T13:28:44;14.70;99.90
22696;DHT22;11515;54.326;10.184;2022-10-31T13:30:39;14.60;99.90
22696;DHT22;11515;54.326;10.184;2022-10-31T13:33:14;14.60;99.90
22696;DHT22;11515;54.326;10.184;2022-10-31T13:38:41;14.50;99.90
22696;DHT22;11515;54.326;10.184;2022-10-31T13:41:30;14.70;99.90
22696;DHT22;11515;54.326;10.184;2022-10-31T13:48:51;16.80;99.90
22696;DHT22;11515;54.326;10.184;2022-10-31T13:51:26;17.00;99.90
22696;DHT22;11515;54.326;10.184;2022-10-31T13:54:23;16.80;99.90
22696;DHT22;11515;54.326;10.184;2022-10-31T13:56:56;16.50;99.90
22696;DHT22;11515;54.326;10.184;2022-10-31T13:59:23;16.20;99.90
22696;DHT22;11515;54.326;10.184;2022-10-31T14:02:01;16.20;99.90
22696;DHT22;11515;54.326;10.184;2022-10-31T14:04:36;16.50;99.90
22696;DHT22;11515;54.326;10.184;2022-10-31T14:07:06;16.00;99.90
22696;DHT22;11515;54.326;10.184;2022-10-31T14:12:38;15.20;99.90
22696;DHT22;11515;54.326;10.184;2022-10-31T14:17:58;14.60;99.90
22696;DHT22;11515;54.326;10.184;2022-10-31T14:20:44;14.30;99.90
22696;DHT22;11515;54.326;10.184;2022-10-31T14:29:20;13.90;99.90
22696;DHT22;11515;54.326;10.184;2022-10-31T14:31:43;13.80;99.90
22696;DHT22;11515;54.326;10.184;2022-10-31T14:39:22;13.60;99.90
22696;DHT22;11515;54.326;10.184;2022-10-31T14:45:25;13.60;99.90
22696;DHT22;11515;54.326;10.184;2022-10-31T14:50:57;13.40;99.90
22696;DHT22;11515;54.326;10.184;2022-10-31T14:53:33;13.40;99.90
22696;DHT22;11515;54.326;10.184;2022-10-31T14:55:59;13.30;99.90
22696;DHT22;11515;54.326;10.184;2022-10-31T14:58:41;13.20;99.90
22696;DHT22;11515;54.326;10.184;2022-10-31T15:01:38;13.30;99.90
22696;DHT22;11515;54.326;10.184;2022-10-31T15:07:02;13.20;99.90
22696;DHT22;11515;54.326;10.184;2022-10-31T15:09:32;13.20;99.90
22696;DHT22;11515;54.326;10.184;2022-10-31T15:12:32;13.10;99.90
22696;DHT22;11515;54.326;10.184;2022-10-31T15:15:10;13.10;99.90
22696;DHT22;11515;54.326;10.184;2022-10-31T15:17:35;13.00;99.90
22696;DHT22;11515;54.326;10.184;2022-10-31T15:20:09;12.90;99.90
22696;DHT22;11515;54.326;10.184;2022-10-31T15:22:35;12.80;99.90
22696;DHT22;11515;54.326;10.184;2022-10-31T15:25:01;12.80;99.90
22696;DHT22;11515;54.326;10.184;2022-10-31T15:27:27;12.70;99.90
22696;DHT22;11515;54.326;10.184;2022-10-31T15:29:56;12.60;99.90
22696;DHT22;11515;54.326;10.184;2022-10-31T15:32:24;12.60;99.90
22696;DHT22;11515;54.326;10.184;2022-10-31T15:34:52;12.50;99.90
22696;DHT22;11515;54.326;10.184;2022-10-31T15:37:19;12.40;99.90
22696;DHT22;11515;54.326;10.184;2022-10-31T15:39:47;12.40;99.90
22696;DHT22;11515;54.326;10.184;2022-10-31T15:42:33;12.30;99.90
22696;DHT22;11515;54.326;10.184;2022-10-31T15:47:29;12.30;99.90
22696;DHT22;11515;54.326;10.184;2022-10-31T15:49:57;12.20;99.90
22696;DHT22;11515;54.326;10.184;2022-10-31T15:52:34;12.20;99.90
22696;DHT22;11515;54.326;10.184;2022-10-31T15:57:41;12.20;99.90
22696;DHT22;11515;54.326;10.184;2022-10-31T16:02:50;12.10;99.90
22696;DHT22;11515;54.326;10.184;2022-10-31T16:05:36;12.10;99.90
22696;DHT22;11515;54.326;10.184;2022-10-31T16:08:02;12.10;99.90
22696;DHT22;11515;54.326;10.184;2022-10-31T16:10:33;12.00;99.90
22696;DHT22;11515;54.326;10.184;2022-10-31T16:13:00;12.00;99.90
22696;DHT22;11515;54.326;10.184;2022-10-31T16:15:27;12.00;99.90
22696;DHT22;11515;54.326;10.184;2022-10-31T16:17:53;11.90;99.90
22696;DHT22;11515;54.326;10.184;2022-10-31T16:20:22;11.90;99.90
22696;DHT22;11515;54.326;10.184;2022-10-31T16:22:51;11.90;99.90
22696;DHT22;11515;54.326;10.184;2022-10-31T16:25:33;12.00;99.90
22696;DHT22;11515;54.326;10.184;2022-10-31T16:28:16;11.90;99.90
22696;DHT22;11515;54.326;10.184;2022-10-31T16:30:45;11.90;99.90
22696;DHT22;11515;54.326;10.184;2022-10-31T16:35:49;11.90;99.90
22696;DHT22;11515;54.326;10.184;2022-10-31T16:38:15;11.90;99.90
22696;DHT22;11515;54.326;10.184;2022-10-31T16:40:41;11.80;99.90
22696;DHT22;11515;54.326;10.184;2022-10-31T16:43:12;11.80;99.90
22696;DHT22;11515;54.326;10.184;2022-10-31T16:45:44;11.90;99.90
22696;DHT22;11515;54.326;10.184;2022-10-31T16:48:12;11.90;99.90
22696;DHT22;11515;54.326;10.184;2022-10-31T16:50:41;11.90;99.90
22696;DHT22;11515;54.326;10.184;2022-10-31T16:53:07;11.90;99.90
22696;DHT22;11515;54.326;10.184;2022-10-31T16:55:33;11.90;99.90
22696;DHT22;11515;54.326;10.184;2022-10-31T16:58:02;11.80;99.90
22696;DHT22;11515;54.326;10.184;2022-10-31T17:00:28;11.80;99.90
22696;DHT22;11515;54.326;10.184;2022-10-31T17:02:55;11.90;99.90
22696;DHT22;11515;54.326;10.184;2022-10-31T17:05:24;11.90;99.90
22696;DHT22;11515;54.326;10.184;2022-10-31T17:07:57;11.80;99.90
22696;DHT22;11515;54.326;10.184;2022-10-31T17:10:24;11.80;99.90
22696;DHT22;11515;54.326;10.184;2022-10-31T17:12:50;11.70;99.90
22696;DHT22;11515;54.326;10.184;2022-10-31T17:15:21;11.60;99.90
22696;DHT22;11515;54.326;10.184;2022-10-31T17:17:47;11.60;99.90
22696;DHT22;11515;54.326;10.184;2022-10-31T17:20:19;11.50;99.90
22696;DHT22;11515;54.326;10.184;2022-10-31T17:22:45;11.50;99.90
22696;DHT22;11515;54.326;10.184;2022-10-31T17:25:17;11.40;99.90
22696;DHT22;11515;54.326;10.184;2022-10-31T17:27:43;11.50;99.90
22696;DHT22;11515;54.326;10.184;2022-10-31T17:30:11;11.40;99.90
22696;DHT22;11515;54.326;10.184;2022-10-31T17:32:38;11.40;99.90
22696;DHT22;11515;54.326;10.184;2022-10-31T17:35:04;11.30;99.90
22696;DHT22;11515;54.326;10.184;2022-10-31T17:37:29;11.30;99.90
22696;DHT22;11515;54.326;10.184;2022-10-31T17:39:55;11.30;99.90